Airfield :
LOGIN :

Register | Disclaimer

   EN    FR    IT 

 










Legend :    VFR   Marginal VFR   IFR   Intensive IFR   Very Intensive IFR
Visi :
Ceiling :
>= 8 km
>= 3000ft
5 to 8 km
1000 to 3000 ft
1500m to 5 km
500 to 1000 ft
800 to 1500m
200 to 500 ft
< 800m
< 200 ft
Symbols :   Thunderstorms  Fog  Heavy snow  Heavy precipitations  Wind > 20 kt
SIGMETs :     Misc.  Thunderstorms  Icing  Turbulence  Mountain Waves  Volcanic Ashes






- Airport Elevation : 33 ft
- IATA code : MHZ


EGUN - RAF Mildenhall

CURRENT METAR :
  • 090656Z 26008KT 9999 FEW035 SCT070 04/04 A2950 RMK AO2A SLP993 P0000 T00400040 $

EXPIRED METARs :
  • 090610Z 26010KT 9999 FEW028 SCT043 05/05 A2949 RMK AO2A SLP990 $
  • 090600Z 26010KT 9999 SCT028 SCT034 BKN043 05/05 A2949 RMK AO2A SHRAE0556 SLP990 $
  • 090556Z COR 26012KT 9999 -SHRA SCT028 SCT034 BKN044 05/05 A2949 RMK AO2A SHRAB35 SLP990 T00500050 10054 20044 52021 $ COR 0601
  • 090541Z 26011KT 9999 -SHRA SCT033 BKN046 05/05 A2949 RMK AO2A RAB35 SLP990 $
  • 090456Z 25012KT 9999 OVC043 05/05 A2947 RMK AO2A SLP983 T00530053 $
  • 090416Z 26011KT 9999 SCT026 BKN031 OVC043 05/05 A2946 RMK AO2A SLP980 $

TAF TAF EGUN
Valid from the 09 at 04:00 until the 10 at 10:00 UTC


090400Z 0904/1010 24010G15KT 9000 -SHRA BKN025 OVC030 610303 QNH2936INS
BECMG 0906/0907 26010G15KT 9999 NSW BKN025 OVC030 620302 QNH2946INS
BECMG 0911/0912 25010G15KT 9999 SCT020 BKN030 QNH2946INS
BECMG 0914/0915 23010G15KT 9999 SCT025 SCT120 QNH2939INS
BECMG 0917/0919 18012KT 9999 FEW030 BKN050 610509 QNH2927INS
BECMG 0919/0920 17012G18KT 9000 -RA SCT005 OVC010 650456 QNH2920INS
BECMG 1000/1001 26012G18KT 8000 -SHRA SCT005 BKN010 OVC015 640453 QNH2920INS
BECMG 1002/1003 30012G18KT 8000 -SHRA BKN010 610356 QNH2923INS
TEMPO 1003/1006 30015G25KT 510003
BECMG 1005/1006 30015G20KT 9999 NSW SCT020 QNH2926INS
TEMPO 1006/1010 30018G28KT 510003 TX07/0912Z TN04/0921Z



MET'MAP, your aeronautical weather chart ! - Copyright ORBIFLY December 2007 - Disclaimer

ORBIFLY MET'MAP TEAM :

Programming & Development : Alexandra Zaïnal
Concept & original design : Baudouin d'Aumeries
Assistance for programming : Marc-Olivier Méhu
Technical & hardware support : Manuel Goepfert

Contact : metmap@orbifly.com




SOURCES & CREDITS :

   NOAA